x

Buoy B01 - Western Maine Shelf (44030) Wave Buoy

6:04 - Sat 30th Apr 2016 All times are EDT. -4 hours from GMT.

  • Sig Wave height 2.3ft
  • Peak Period 6s
  • Wind
    9mph
  • Sea Temp 45°f
  • Aire Temp 45°f
  • Sea Pressure 1021mb
  • Buoy B01 - Western Maine Shelf
  • Buoy B01 - Western Maine Shelf

More Historic Weather Station data

Upgrade to MSW Pro to gain access to the past 30 days of data for over 8000 Wavebouys and Weather Stations around the globe.

Join Pro

Comparision Forecast

View Surf forecast
   
sáb 04/30 6:04 2.5ft 6s 9
mph
1021mb 45f 45f
5:04 2.5ft 8s 9 11 mph 1021mb 45f 44f
4:04 2.5ft 5s 11
mph
1021.1mb 45f 44f
3:04 3ft 6s 9 11 mph 1021.6mb 45f 44f
2:04 3ft 5s 9 11 mph 1021.6mb 45f 44f
1:04 3ft 5s 9 11 mph 1021.5mb 45f 44f
12:04 3.5ft 5s 13 16 mph 1021.4mb 45f 44f
vie 04/29 11:04 3.5ft 5s 11 13 mph 1021.1mb 45f 44f
10:04 2.5ft 5s 13 16 mph 1020.8mb 45f 44f
9:04 3ft 5s 13 16 mph 1020.6mb 45f 44f
8:04 2.5ft 4s 13 18 mph 1020.1mb 45f 44f
7:04 2.5ft 5s 16 18 mph 1019.8mb 45f 44f
6:04 2.5ft 4s 13 16 mph 1020mb 45f 44f
5:04 2.5ft 4s 13 16 mph 1020.1mb 45f 44f
4:04 2.5ft 5s 13 16 mph 1020mb 45f 44f
3:04 2.5ft 5s 11 13 mph 1020.5mb 45f 44f
2:04 2.5ft 5s 11 13 mph 1021.3mb 45f 44f
1:04 3ft 5s 11 13 mph 1021.9mb 45f 44f
12:04 3ft 8s 9 11 mph 1022.6mb 45f 44f
11:04 2.5ft 5s 11 13 mph 1023.1mb 45f 43f
10:04 2.5ft 4s 9 11 mph 1022.7mb 45f 44f
9:04 3ft 5s 9 13 mph 1022.6mb 45f 43f
8:04 3ft 5s 9 11 mph 1022.3mb 45f 43f
7:04 3ft 4s 13 16 mph 1021.9mb 45f 43f
6:04 3ft 4s 16 18 mph 1021.3mb 45f 42f
5:04 4.5ft 4s 18 20 mph 1020.7mb 45f 42f
4:04 3.5ft 8s 20 22 mph 1020.4mb 45f 42f
3:04 3.5ft 8s 18 20 mph 1020.1mb 45f 42f
2:04 2.5ft 5s 11 16 mph 1020.2mb 45f 44f
1:04 2ft 5s 4 7 mph 1020.4mb 45f 44f
12:04 2.5ft 4s 9 11 mph 1020mb 45f 44f
jue 04/28 11:04 3.5ft 11s 11 13 mph 1019.6mb 45f 44f
10:04 3.5ft 8s 11 13 mph 1019.5mb 45f 44f
9:04 2.5ft 4s 11 13 mph 1019.1mb 45f 44f
8:04 2.5ft 4s 13 16 mph 1018.6mb 45f 44f
7:04 2.5ft 4s 13 18 mph 1017.9mb 45f 44f
6:04 2.5ft 4s 13 16 mph 1017.2mb 45f 44f
5:04 2.5ft 4s 13 16 mph 1016.4mb 45f 44f
4:04 3ft 8s 16 18 mph 1016.2mb 45f 43f
3:04 2ft 3s 16 18 mph 1016.5mb 45f 43f
2:04 2.5ft 8s 16 18 mph 1016.8mb 45f 42f
1:04 2.5ft 8s 13 16 mph 1017.2mb 45f 42f
12:04 2.5ft 11s 11 13 mph 1017.5mb 45f 41f
11:04 3ft 11s 9 11 mph 1017.7mb 45f 40f
10:04 2.5ft 11s 7
mph
1017.8mb 45f 40f
9:04 2.5ft 11s 4 7 mph 1017.7mb 45f 41f
8:04 3.5ft 11s 7 9 mph 1017.1mb 44f 41f
7:04 3.5ft 11s 9 11 mph 1016.3mb 44f 41f
6:04 3ft 11s 9 11 mph 1015.5mb 44f 40f
5:04 2.5ft 11s 9
mph
1014.4mb 45f 40f
4:04 3ft 11s 11 13 mph 1013.5mb 45f 42f
3:04 3.5ft 11s 9 11 mph 1012.9mb 45f 42f
2:04 4ft 11s 13 16 mph 1012.6mb 45f 43f
1:04 3ft 5s 18 22 mph 1012.1mb 45f 44f
12:04 3ft 3s 18 22 mph 1011.5mb 45f 45f
mié 04/27 11:04 4.5ft 11s 18 22 mph 1010.9mb 45f 47f
10:04 4ft 11s 11 13 mph 1009.6mb 45f 45f
9:04 4ft 11s 7 9 mph 1008.8mb 45f 46f
8:04 2.5ft 4s 13 16 mph 1007.9mb 45f 46f
7:04 4ft 11s 13 18 mph 1008.1mb 46f 46f
6:04 3.5ft 4s 18 20 mph 1008.5mb 46f 46f
5:04 2.5ft 4s 20 25 mph 1008.5mb 46f 45f
4:04 1.6ft 3s 16 18 mph 1008.7mb 46f 45f
3:04 2.5ft 11s 16 20 mph 1009.4mb 46f 45f
2:04 3.5ft 11s 4 7 mph 1010.2mb 45f 48f
1:04 2ft 3s 11 13 mph 1010.7mb 45f 47f
12:04 3ft 8s 16 18 mph 1010.8mb 44f 46f
11:04 3.5ft 11s 13 18 mph 1011.6mb 44f 46f
10:04 3.5ft 11s 13 16 mph 1011.9mb 44f 45f
9:04 3.5ft 11s 13 16 mph 1012.1mb 44f 43f
8:04 3ft 11s 11 13 mph 1011.8mb 44f 43f
7:04 2.5ft 11s 13
mph
1011.6mb 44f 41f
6:04 2.5ft 11s 9 11 mph 1011.3mb 44f 38f
5:04 2.5ft 11s 11
mph
1010.8mb 44f 38f
4:04 2ft 6s 13
mph
1010.3mb 44f 38f
3:04 2ft 6s 13 16 mph 1009.7mb 44f 39f
2:04 1.6ft 5s 9 11 mph 1010.1mb 44f 38f
1:04 2ft 5s 11 13 mph 1010.2mb 44f 38f
12:04 2ft 5s 13 16 mph 1010.4mb 44f 38f
mar 04/26 11:04 2ft 5s 13 16 mph 1010.4mb 44f 38f
10:04 3ft 11s 9 11 mph 1010.2mb 44f 38f
9:04 3ft 11s 9 11 mph 1010.2mb 45f 37f
8:04 2ft 5s 7 11 mph 1010mb 45f 37f
7:04 3.5ft 11s 9 11 mph 1009.5mb 45f 37f
6:04 2.5ft 5s 13 18 mph 1009.5mb 45f 37f
5:04 3ft 5s 16 18 mph 1008.8mb 44f 36f
4:04 3.5ft 5s 16 18 mph 1008.2mb 44f 36f
3:04 3.5ft 5s 18 20 mph 1008.4mb 44f 36f
2:04 4ft 5s 20 22 mph 1008.4mb 44f 35f
1:04 4ft 5s 18 22 mph 1009.8mb 44f 36f
12:04 3.5ft 4s 20 22 mph 1008.9mb 44f 36f